createdAt,value
2018-08-28T00:00:18.764Z,0
2018-08-28T00:00:44.883Z,0
2018-08-28T00:01:11.007Z,0
2018-08-28T00:01:37.116Z,0
2018-08-28T00:02:03.231Z,0
2018-08-28T00:02:29.336Z,0
2018-08-28T00:02:55.445Z,0
2018-08-28T00:03:21.554Z,0
2018-08-28T00:03:47.702Z,0
2018-08-28T00:04:13.831Z,0
2018-08-28T00:04:39.938Z,0
2018-08-28T00:05:06.048Z,0
2018-08-28T00:05:32.155Z,0
2018-08-28T00:05:58.271Z,0
2018-08-28T00:06:24.374Z,0
2018-08-28T00:06:50.487Z,0
2018-08-28T00:07:16.612Z,0
2018-08-28T00:07:42.753Z,0
2018-08-28T00:08:08.880Z,0
2018-08-28T00:08:34.990Z,0
2018-08-28T00:09:01.102Z,0
2018-08-28T00:09:27.244Z,0
2018-08-28T00:09:53.377Z,0
2018-08-28T00:10:19.507Z,0
2018-08-28T00:10:45.633Z,0
2018-08-28T00:11:11.763Z,0
2018-08-28T00:11:37.874Z,0
2018-08-28T00:12:03.982Z,0
2018-08-28T00:12:30.094Z,0
2018-08-28T00:12:56.202Z,0
2018-08-28T00:13:22.351Z,0
2018-08-28T00:13:48.476Z,0
2018-08-28T00:14:14.588Z,0
2018-08-28T00:14:40.697Z,0
2018-08-28T00:15:06.809Z,0
2018-08-28T00:15:32.916Z,0
2018-08-28T00:15:59.029Z,0
2018-08-28T00:16:25.134Z,0
2018-08-28T00:16:51.268Z,0
2018-08-28T00:17:17.407Z,0
2018-08-28T00:17:43.513Z,0
2018-08-28T00:18:09.624Z,0
2018-08-28T00:18:35.733Z,0
2018-08-28T00:19:01.862Z,0
2018-08-28T00:19:27.970Z,0
2018-08-28T00:19:54.084Z,0
2018-08-28T00:20:20.192Z,0
2018-08-28T00:20:46.299Z,0
2018-08-28T00:21:12.410Z,0
2018-08-28T00:21:38.519Z,0
2018-08-28T00:22:04.649Z,0
2018-08-28T00:22:30.761Z,0
2018-08-28T00:22:56.888Z,0
2018-08-28T00:23:23.004Z,0
2018-08-28T00:23:49.109Z,0
2018-08-28T00:24:15.217Z,0
2018-08-28T00:24:41.324Z,0
2018-08-28T00:25:07.436Z,0
2018-08-28T00:25:33.543Z,0
2018-08-28T00:25:59.655Z,0
2018-08-28T00:26:25.762Z,0
2018-08-28T00:26:51.891Z,0
2018-08-28T00:27:18.017Z,0
2018-08-28T00:27:44.126Z,0
2018-08-28T00:28:10.234Z,0
2018-08-28T00:28:36.344Z,0
2018-08-28T00:29:02.452Z,0
2018-08-28T00:29:28.564Z,0
2018-08-28T00:29:54.686Z,0
2018-08-28T00:30:20.832Z,0
2018-08-28T00:30:46.960Z,0
2018-08-28T00:31:13.068Z,0
2018-08-28T00:31:39.194Z,0
2018-08-28T00:32:05.303Z,0
2018-08-28T00:32:31.410Z,0
2018-08-28T00:32:57.522Z,0
2018-08-28T00:33:23.631Z,0
2018-08-28T00:33:49.742Z,0
2018-08-28T00:34:15.853Z,0
2018-08-28T00:34:41.978Z,0
2018-08-28T00:35:08.088Z,0
2018-08-28T00:35:34.198Z,0
2018-08-28T00:36:00.308Z,0
2018-08-28T00:36:26.424Z,0
2018-08-28T00:36:52.528Z,0
2018-08-28T00:37:18.640Z,0
2018-08-28T00:37:44.746Z,0
2018-08-28T00:38:10.872Z,0
2018-08-28T00:38:36.997Z,0
2018-08-28T00:39:03.107Z,0
2018-08-28T00:39:29.217Z,0
2018-08-28T00:39:55.327Z,0
2018-08-28T00:40:21.433Z,0
2018-08-28T00:40:47.543Z,0
2018-08-28T00:41:13.671Z,0
2018-08-28T00:41:39.780Z,0
2018-08-28T00:42:05.891Z,0
2018-08-28T00:42:32.001Z,0
2018-08-28T00:42:58.111Z,0
2018-08-28T00:43:24.236Z,0
2018-08-28T00:43:50.346Z,0
2018-08-28T00:44:16.474Z,0
2018-08-28T00:44:42.602Z,0
2018-08-28T00:45:08.710Z,0
2018-08-28T00:45:34.838Z,0
2018-08-28T00:46:00.950Z,0
2018-08-28T00:46:27.058Z,0
2018-08-28T00:46:53.169Z,0
2018-08-28T00:47:19.309Z,0
2018-08-28T00:47:45.418Z,0
2018-08-28T00:48:11.528Z,0
2018-08-28T00:48:37.636Z,0
2018-08-28T00:49:03.745Z,0
2018-08-28T00:49:29.874Z,0
2018-08-28T00:49:55.984Z,0
2018-08-28T00:50:22.095Z,0
2018-08-28T00:50:48.203Z,0
2018-08-28T00:51:14.311Z,0
2018-08-28T00:51:40.438Z,0
2018-08-28T00:52:06.547Z,0
2018-08-28T00:52:32.675Z,0
2018-08-28T00:52:58.782Z,0
2018-08-28T00:53:24.893Z,0
2018-08-28T00:53:51.026Z,0
2018-08-28T00:54:17.133Z,0
2018-08-28T00:54:43.241Z,0
2018-08-28T00:55:09.368Z,0
2018-08-28T00:55:35.480Z,0
2018-08-28T00:56:01.589Z,0
2018-08-28T00:56:27.698Z,0
2018-08-28T00:56:53.807Z,0
2018-08-28T00:57:19.919Z,0
2018-08-28T00:57:46.029Z,0
2018-08-28T00:58:12.142Z,0
2018-08-28T00:58:38.249Z,0
2018-08-28T00:59:04.359Z,0
2018-08-28T00:59:30.466Z,0
2018-08-28T00:59:56.575Z,0
2018-08-28T01:00:22.707Z,0
2018-08-28T01:00:48.833Z,0
2018-08-28T01:01:14.943Z,0
2018-08-28T01:01:41.069Z,0
2018-08-28T01:02:07.195Z,0
2018-08-28T01:02:33.312Z,0
2018-08-28T01:02:59.436Z,0
2018-08-28T01:03:25.563Z,0
2018-08-28T01:03:51.672Z,0
2018-08-28T01:04:17.781Z,0
2018-08-28T01:04:43.891Z,0
2018-08-28T01:05:10.004Z,0
2018-08-28T01:05:36.103Z,0
2018-08-28T01:06:02.215Z,0
2018-08-28T01:06:28.359Z,0
2018-08-28T01:06:54.474Z,0
2018-08-28T01:07:20.575Z,0
2018-08-28T01:07:46.700Z,0
2018-08-28T01:08:12.810Z,0
2018-08-28T01:08:38.918Z,0
2018-08-28T01:09:05.049Z,0
2018-08-28T01:09:31.174Z,0
2018-08-28T01:09:57.283Z,0
2018-08-28T01:10:23.391Z,0
2018-08-28T01:10:49.500Z,0
2018-08-28T01:11:15.627Z,0
2018-08-28T01:11:41.738Z,0
2018-08-28T01:12:07.865Z,0
2018-08-28T01:12:33.975Z,0
2018-08-28T01:13:00.084Z,0
2018-08-28T01:13:26.194Z,0
2018-08-28T01:13:52.304Z,0
2018-08-28T01:14:18.416Z,0
2018-08-28T01:14:44.618Z,0
2018-08-28T01:15:10.654Z,0
2018-08-28T01:15:36.780Z,0
2018-08-28T01:16:02.887Z,0
2018-08-28T01:16:28.997Z,0
2018-08-28T01:16:55.104Z,0
2018-08-28T01:17:21.214Z,0
2018-08-28T01:17:47.323Z,0
2018-08-28T01:18:13.438Z,0
2018-08-28T01:18:39.546Z,0
2018-08-28T01:19:05.658Z,0
2018-08-28T01:19:31.765Z,0
2018-08-28T01:19:57.893Z,0
2018-08-28T01:20:24.005Z,0
2018-08-28T01:20:50.129Z,0
2018-08-28T01:21:16.240Z,0
2018-08-28T01:21:42.349Z,0
2018-08-28T01:22:08.477Z,0
2018-08-28T01:22:34.603Z,0
2018-08-28T01:23:00.708Z,0
2018-08-28T01:23:26.823Z,0
2018-08-28T01:23:52.947Z,0
2018-08-28T01:24:19.059Z,0
2018-08-28T01:24:45.182Z,0
2018-08-28T01:25:11.320Z,0
2018-08-28T01:25:37.455Z,0
2018-08-28T01:26:03.564Z,0
2018-08-28T01:26:29.671Z,0
2018-08-28T01:26:55.797Z,0
2018-08-28T01:27:21.909Z,0
2018-08-28T01:27:48.033Z,0
2018-08-28T01:28:14.144Z,0
2018-08-28T01:28:40.254Z,0
2018-08-28T01:29:06.385Z,0
2018-08-28T01:29:32.498Z,0
2018-08-28T01:29:58.603Z,0
2018-08-28T01:30:24.716Z,0
2018-08-28T01:30:50.845Z,0
2018-08-28T01:31:16.952Z,0
2018-08-28T01:31:43.060Z,0
2018-08-28T01:32:09.189Z,0
2018-08-28T01:32:35.296Z,0
2018-08-28T01:33:01.425Z,0
2018-08-28T01:33:27.534Z,0
2018-08-28T01:33:53.644Z,0
2018-08-28T01:34:19.752Z,0
2018-08-28T01:34:45.860Z,0
2018-08-28T01:35:11.989Z,0
2018-08-28T01:35:38.118Z,0
2018-08-28T01:36:04.247Z,0
2018-08-28T01:36:30.355Z,0
2018-08-28T01:36:56.482Z,0
2018-08-28T01:37:22.605Z,0
2018-08-28T01:37:48.714Z,0
2018-08-28T01:38:14.823Z,0
2018-08-28T01:38:40.931Z,0
2018-08-28T01:39:07.042Z,0
2018-08-28T01:39:33.151Z,0
2018-08-28T01:39:59.262Z,0
2018-08-28T01:40:25.373Z,0
2018-08-28T01:40:51.480Z,0
2018-08-28T01:41:17.590Z,0
2018-08-28T01:41:43.700Z,0
2018-08-28T01:42:09.808Z,0
2018-08-28T01:42:35.916Z,0
2018-08-28T01:43:02.028Z,0
2018-08-28T01:43:28.154Z,0
2018-08-28T01:43:54.264Z,0
2018-08-28T01:44:20.379Z,0
2018-08-28T01:44:46.485Z,0
2018-08-28T01:45:12.595Z,0
2018-08-28T01:45:38.705Z,0
2018-08-28T01:46:04.816Z,0
2018-08-28T01:46:30.923Z,0
2018-08-28T01:46:57.050Z,0
2018-08-28T01:47:23.149Z,0
2018-08-28T01:47:49.250Z,0
2018-08-28T01:48:15.351Z,0
2018-08-28T01:48:41.468Z,0
2018-08-28T01:49:07.570Z,0
2018-08-28T01:49:33.670Z,0
2018-08-28T01:49:59.773Z,0
2018-08-28T01:50:25.878Z,0
2018-08-28T01:50:52.007Z,0
2018-08-28T01:51:18.109Z,0
2018-08-28T01:51:44.210Z,0
2018-08-28T01:52:10.329Z,0
2018-08-28T01:52:36.434Z,0
2018-08-28T01:53:02.536Z,0
2018-08-28T01:53:28.632Z,0
2018-08-28T01:53:54.752Z,0
2018-08-28T01:54:20.852Z,0
2018-08-28T01:54:46.951Z,0
2018-08-28T01:55:13.055Z,0
2018-08-28T01:55:39.154Z,0
2018-08-28T01:56:05.272Z,0
2018-08-28T01:56:31.372Z,0
2018-08-28T01:56:57.473Z,0
2018-08-28T01:57:23.575Z,0
2018-08-28T01:57:49.673Z,0
2018-08-28T01:58:15.792Z,0
2018-08-28T01:58:41.892Z,0
2018-08-28T01:59:07.994Z,0
2018-08-28T01:59:34.094Z,0
2018-08-28T02:00:00.195Z,0
2018-08-28T02:00:26.310Z,0
2018-08-28T02:00:52.411Z,0
2018-08-28T02:01:18.511Z,0
2018-08-28T02:01:44.612Z,0
2018-08-28T02:02:10.713Z,0
2018-08-28T02:02:36.816Z,0
2018-08-28T02:03:02.915Z,0
2018-08-28T02:03:29.032Z,0
2018-08-28T02:03:55.134Z,0
2018-08-28T02:04:21.251Z,0
2018-08-28T02:04:47.372Z,0
2018-08-28T02:05:13.471Z,0
2018-08-28T02:05:39.572Z,0
2018-08-28T02:06:05.690Z,0
2018-08-28T02:06:31.809Z,0
2018-08-28T02:06:57.927Z,0
2018-08-28T02:07:24.029Z,0
2018-08-28T02:07:50.147Z,0
2018-08-28T02:08:16.264Z,0
2018-08-28T02:08:42.384Z,0
2018-08-28T02:09:08.486Z,0
2018-08-28T02:09:34.584Z,0
2018-08-28T02:10:00.685Z,0
2018-08-28T02:10:26.802Z,0
2018-08-28T02:10:52.904Z,0
2018-08-28T02:11:19.005Z,0
2018-08-28T02:11:45.123Z,0
2018-08-28T02:12:11.256Z,0
2018-08-28T02:12:37.376Z,0
2018-08-28T02:13:03.530Z,0
2018-08-28T02:13:29.586Z,0
2018-08-28T02:13:55.696Z,0
2018-08-28T02:14:21.795Z,0
2018-08-28T02:14:47.914Z,0
2018-08-28T02:15:14.029Z,0
2018-08-28T02:15:40.130Z,0
2018-08-28T02:16:06.231Z,0
2018-08-28T02:16:32.331Z,0
2018-08-28T02:16:58.431Z,0
2018-08-28T02:17:24.535Z,0
2018-08-28T02:17:50.652Z,0
2018-08-28T02:18:16.755Z,0
2018-08-28T02:18:42.855Z,0
2018-08-28T02:19:08.956Z,0
2018-08-28T02:19:35.066Z,0
2018-08-28T02:20:01.163Z,0
2018-08-28T02:20:27.280Z,0
2018-08-28T02:20:53.384Z,0
2018-08-28T02:21:19.499Z,0
2018-08-28T02:21:45.606Z,0
2018-08-28T02:22:11.734Z,0
2018-08-28T02:22:37.837Z,0
2018-08-28T02:23:03.954Z,0
2018-08-28T02:23:30.055Z,0
2018-08-28T02:23:56.158Z,0
2018-08-28T02:24:22.260Z,0
2018-08-28T02:24:48.360Z,0
2018-08-28T02:25:14.479Z,0
2018-08-28T02:25:40.581Z,0
2018-08-28T02:26:06.682Z,0
2018-08-28T02:26:32.783Z,0
2018-08-28T02:26:58.902Z,0
2018-08-28T02:27:25.018Z,0
2018-08-28T02:27:51.135Z,0
2018-08-28T02:28:17.237Z,0
2018-08-28T02:28:43.355Z,0
2018-08-28T02:29:09.456Z,0
2018-08-28T02:29:35.559Z,0
2018-08-28T02:30:01.663Z,0
2018-08-28T02:30:27.793Z,0
2018-08-28T02:30:53.910Z,0
2018-08-28T02:31:20.036Z,0
2018-08-28T02:31:46.173Z,0
2018-08-28T02:32:12.297Z,0
2018-08-28T02:32:38.417Z,0
2018-08-28T02:33:04.557Z,0
2018-08-28T02:33:30.706Z,0
2018-08-28T02:33:56.808Z,0
2018-08-28T02:34:22.935Z,0
2018-08-28T02:34:49.072Z,0
2018-08-28T02:35:15.226Z,0
2018-08-28T02:35:41.385Z,0
2018-08-28T02:36:07.549Z,0
2018-08-28T02:36:33.680Z,0
2018-08-28T02:36:59.862Z,0
2018-08-28T02:37:26.016Z,0
2018-08-28T02:37:52.179Z,0
2018-08-28T02:38:18.310Z,0
2018-08-28T02:38:44.447Z,0
2018-08-28T02:39:10.605Z,0
2018-08-28T02:39:36.752Z,0
2018-08-28T02:40:02.894Z,0
2018-08-28T02:40:29.049Z,0
2018-08-28T02:40:55.182Z,0
2018-08-28T02:41:21.345Z,0
2018-08-28T02:41:47.501Z,0
2018-08-28T02:42:13.642Z,0
2018-08-28T02:42:39.794Z,0
2018-08-28T02:43:05.928Z,0
2018-08-28T02:43:32.084Z,0
2018-08-28T02:43:58.259Z,0
2018-08-28T02:44:24.413Z,0
2018-08-28T02:44:50.569Z,0
2018-08-28T02:45:16.772Z,0
2018-08-28T02:45:42.907Z,0
2018-08-28T02:46:09.042Z,0
2018-08-28T02:46:35.194Z,0
2018-08-28T02:47:01.330Z,0
2018-08-28T02:47:27.502Z,0
2018-08-28T02:47:53.641Z,0
2018-08-28T02:48:19.802Z,0
2018-08-28T02:48:45.942Z,0
2018-08-28T02:49:12.094Z,0
2018-08-28T02:49:38.251Z,0
2018-08-28T02:50:04.405Z,0
2018-08-28T02:50:30.535Z,0
2018-08-28T02:50:56.660Z,0
2018-08-28T02:51:22.797Z,0
2018-08-28T02:51:48.936Z,0
2018-08-28T02:52:15.092Z,0
2018-08-28T02:52:41.273Z,0
2018-08-28T02:53:07.403Z,0
2018-08-28T02:53:33.547Z,0
2018-08-28T02:53:59.680Z,0
2018-08-28T02:54:25.837Z,0
2018-08-28T02:54:51.974Z,0
2018-08-28T02:55:18.108Z,0
2018-08-28T02:55:44.268Z,0
2018-08-28T02:56:10.501Z,0
2018-08-28T02:56:36.540Z,0
2018-08-28T02:57:02.695Z,0
2018-08-28T02:57:28.878Z,0
2018-08-28T02:57:55.009Z,0
2018-08-28T02:58:21.148Z,0
2018-08-28T02:58:47.275Z,0
2018-08-28T02:59:13.410Z,0
2018-08-28T02:59:39.568Z,0
2018-08-28T03:00:05.703Z,0
2018-08-28T03:00:31.860Z,0
2018-08-28T03:00:57.992Z,0
2018-08-28T03:01:24.166Z,0
2018-08-28T03:01:50.296Z,0
2018-08-28T03:02:16.512Z,0
2018-08-28T03:02:42.686Z,0
2018-08-28T03:03:09.063Z,0
2018-08-28T03:03:35.055Z,0
2018-08-28T03:04:01.204Z,0
2018-08-28T03:04:27.369Z,0
2018-08-28T03:04:53.530Z,0
2018-08-28T03:05:19.671Z,0
2018-08-28T03:05:45.844Z,0
2018-08-28T03:06:11.981Z,0
2018-08-28T03:06:38.166Z,0
2018-08-28T03:07:04.324Z,0
2018-08-28T03:07:30.460Z,0
2018-08-28T03:07:56.641Z,0
2018-08-28T03:08:22.774Z,0
2018-08-28T03:08:48.902Z,0
2018-08-28T03:09:15.039Z,0
2018-08-28T03:09:41.192Z,0
2018-08-28T03:10:07.372Z,0
2018-08-28T03:10:33.507Z,0
2018-08-28T03:10:59.641Z,0
2018-08-28T03:11:25.815Z,0
2018-08-28T03:11:51.899Z,0
2018-08-28T03:12:18.060Z,0
2018-08-28T03:12:44.190Z,0
2018-08-28T03:13:10.322Z,0
2018-08-28T03:13:36.484Z,0
2018-08-28T03:14:02.616Z,0
2018-08-28T03:14:28.793Z,0
2018-08-28T03:14:54.919Z,0
2018-08-28T03:15:21.092Z,0
2018-08-28T03:15:47.242Z,0
2018-08-28T03:16:13.356Z,0
2018-08-28T03:16:39.485Z,0
2018-08-28T03:17:05.663Z,0
2018-08-28T03:17:31.833Z,0
2018-08-28T03:17:57.965Z,0
2018-08-28T03:18:24.094Z,0
2018-08-28T03:18:50.224Z,0
2018-08-28T03:19:16.389Z,0
2018-08-28T03:19:42.549Z,0
2018-08-28T03:20:08.682Z,0
2018-08-28T03:20:34.839Z,0
2018-08-28T03:21:00.994Z,0
2018-08-28T03:21:27.149Z,0
2018-08-28T03:21:53.288Z,0
2018-08-28T03:22:19.423Z,0
2018-08-28T03:22:45.588Z,0
2018-08-28T03:23:11.718Z,0
2018-08-28T03:23:37.856Z,0
2018-08-28T03:24:03.999Z,0
2018-08-28T03:24:30.133Z,0
2018-08-28T03:24:56.256Z,0
2018-08-28T03:25:22.395Z,0
2018-08-28T03:25:48.534Z,0
2018-08-28T03:26:14.688Z,0
2018-08-28T03:26:40.823Z,0
2018-08-28T03:27:06.959Z,0
2018-08-28T03:27:33.097Z,0
2018-08-28T03:27:59.230Z,0
2018-08-28T03:28:25.387Z,0
2018-08-28T03:28:51.532Z,0
2018-08-28T03:29:17.658Z,0
2018-08-28T03:29:43.791Z,0
2018-08-28T03:30:09.948Z,0
2018-08-28T03:30:36.141Z,0
2018-08-28T03:31:02.292Z,0
2018-08-28T03:31:28.426Z,0
2018-08-28T03:31:54.555Z,0
2018-08-28T03:32:20.714Z,0
2018-08-28T03:32:46.845Z,0
2018-08-28T03:33:13.002Z,0
2018-08-28T03:33:39.143Z,0
2018-08-28T03:34:05.269Z,0
2018-08-28T03:34:31.403Z,0
2018-08-28T03:34:57.555Z,0
2018-08-28T03:35:23.705Z,0
2018-08-28T03:35:49.839Z,0
2018-08-28T03:36:15.968Z,0
2018-08-28T03:36:42.097Z,0
2018-08-28T03:37:08.248Z,0
2018-08-28T03:37:34.409Z,0
2018-08-28T03:38:00.565Z,0
2018-08-28T03:38:26.716Z,0
2018-08-28T03:38:52.877Z,0
2018-08-28T03:39:19.033Z,0
2018-08-28T03:39:45.187Z,0
2018-08-28T03:40:11.340Z,0
2018-08-28T03:40:37.468Z,0
2018-08-28T03:41:03.623Z,0
2018-08-28T03:41:29.754Z,0
2018-08-28T03:41:55.910Z,0
2018-08-28T03:42:22.045Z,0
2018-08-28T03:42:48.179Z,0
2018-08-28T03:43:14.308Z,0
2018-08-28T03:43:40.446Z,0
2018-08-28T03:44:06.576Z,0
2018-08-28T03:44:32.744Z,0
2018-08-28T03:44:58.842Z,0
2018-08-28T03:45:24.980Z,0
2018-08-28T03:45:51.119Z,0
2018-08-28T03:46:17.254Z,0
2018-08-28T03:46:43.416Z,0
2018-08-28T03:47:09.550Z,0
2018-08-28T03:47:35.684Z,0
2018-08-28T03:48:01.836Z,0
2018-08-28T03:48:27.973Z,0
2018-08-28T03:48:54.131Z,0
2018-08-28T03:49:20.276Z,0
2018-08-28T03:49:46.416Z,0
2018-08-28T03:50:12.546Z,0
2018-08-28T03:50:38.708Z,0
2018-08-28T03:51:04.858Z,0
2018-08-28T03:51:30.998Z,0
2018-08-28T03:51:57.124Z,0
2018-08-28T03:52:23.261Z,0
2018-08-28T03:52:49.423Z,0
2018-08-28T03:53:15.572Z,0
2018-08-28T03:53:41.744Z,0
2018-08-28T03:54:07.839Z,0
2018-08-28T03:54:33.979Z,0
2018-08-28T03:55:00.104Z,0
2018-08-28T03:55:26.270Z,0
2018-08-28T03:55:52.392Z,0
2018-08-28T03:56:18.526Z,0
2018-08-28T03:56:44.678Z,0
2018-08-28T03:57:10.810Z,0
2018-08-28T03:57:36.944Z,0
2018-08-28T03:58:03.108Z,0
2018-08-28T03:58:29.233Z,0
2018-08-28T03:58:55.367Z,0
2018-08-28T03:59:21.508Z,0
2018-08-28T03:59:47.641Z,0
2018-08-28T04:00:13.779Z,0
2018-08-28T04:00:39.920Z,0
2018-08-28T04:01:06.056Z,0
2018-08-28T04:01:32.208Z,0
2018-08-28T04:01:58.397Z,0
2018-08-28T04:02:24.497Z,0
2018-08-28T04:02:50.652Z,0
2018-08-28T04:03:16.831Z,4
2018-08-28T04:03:43.053Z,4
2018-08-28T04:04:09.140Z,4
2018-08-28T04:04:35.285Z,4
2018-08-28T04:05:01.410Z,4
2018-08-28T04:05:27.544Z,4
2018-08-28T04:05:53.706Z,0
2018-08-28T04:06:19.840Z,0
2018-08-28T04:06:45.977Z,4
2018-08-28T04:07:12.131Z,4
2018-08-28T04:07:38.264Z,4
2018-08-28T04:08:04.399Z,4
2018-08-28T04:08:30.531Z,4
2018-08-28T04:08:56.664Z,8
2018-08-28T04:09:22.796Z,4
2018-08-28T04:09:48.930Z,4
2018-08-28T04:10:15.065Z,8
2018-08-28T04:10:41.198Z,8
2018-08-28T04:11:07.353Z,4
2018-08-28T04:11:33.542Z,8
2018-08-28T04:11:59.687Z,8
2018-08-28T04:12:25.870Z,12
2018-08-28T04:12:52.024Z,8
2018-08-28T04:13:18.178Z,12
2018-08-28T04:13:44.313Z,12
2018-08-28T04:14:10.445Z,12
2018-08-28T04:14:36.585Z,16
2018-08-28T04:15:02.765Z,16
2018-08-28T04:15:28.901Z,12
2018-08-28T04:15:55.034Z,16
2018-08-28T04:16:21.169Z,16
2018-08-28T04:16:47.301Z,20
2018-08-28T04:17:13.578Z,20
2018-08-28T04:17:39.617Z,20
2018-08-28T04:18:05.777Z,24
2018-08-28T04:18:31.906Z,24
2018-08-28T04:18:58.067Z,24
2018-08-28T04:19:24.197Z,28
2018-08-28T04:19:50.332Z,32
2018-08-28T04:20:16.472Z,32
2018-08-28T04:20:42.605Z,36
2018-08-28T04:21:08.739Z,36
2018-08-28T04:21:34.873Z,40
2018-08-28T04:22:01.002Z,40
2018-08-28T04:22:27.185Z,44
2018-08-28T04:22:53.298Z,48
2018-08-28T04:23:19.432Z,52
2018-08-28T04:23:45.568Z,52
2018-08-28T04:24:11.701Z,56
2018-08-28T04:24:37.836Z,60
2018-08-28T04:25:03.972Z,60
2018-08-28T04:25:30.127Z,64
2018-08-28T04:25:56.282Z,68
2018-08-28T04:26:22.423Z,72
2018-08-28T04:26:48.553Z,76
2018-08-28T04:27:14.749Z,80
2018-08-28T04:27:40.881Z,88
2018-08-28T04:28:07.035Z,92
2018-08-28T04:28:33.176Z,96
2018-08-28T04:28:59.331Z,100
2018-08-28T04:29:25.467Z,104
2018-08-28T04:29:51.593Z,108
2018-08-28T04:30:17.781Z,112
2018-08-28T04:30:43.908Z,120
2018-08-28T04:31:10.001Z,128
2018-08-28T04:31:36.138Z,128
2018-08-28T04:32:02.270Z,136
2018-08-28T04:32:28.401Z,140
2018-08-28T04:32:54.541Z,144
2018-08-28T04:33:20.695Z,152
2018-08-28T04:33:46.875Z,160
2018-08-28T04:34:13.013Z,164
2018-08-28T04:34:39.166Z,172
2018-08-28T04:35:05.322Z,180
2018-08-28T04:35:31.455Z,188
2018-08-28T04:35:57.594Z,196
2018-08-28T04:36:23.750Z,204
2018-08-28T04:36:49.905Z,212
2018-08-28T04:37:16.045Z,220
2018-08-28T04:37:42.179Z,224
2018-08-28T04:38:08.346Z,236
2018-08-28T04:38:34.475Z,240
2018-08-28T04:39:00.638Z,248
2018-08-28T04:39:26.773Z,256
2018-08-28T04:39:52.937Z,268
2018-08-28T04:40:19.087Z,276
2018-08-28T04:40:45.254Z,288
2018-08-28T04:41:11.386Z,296
2018-08-28T04:41:37.520Z,308
2018-08-28T04:42:03.671Z,316
2018-08-28T04:42:29.809Z,328
2018-08-28T04:42:55.941Z,336
2018-08-28T04:43:22.076Z,348
2018-08-28T04:43:48.223Z,360
2018-08-28T04:44:14.353Z,372
2018-08-28T04:44:40.492Z,380
2018-08-28T04:45:06.630Z,392
2018-08-28T04:45:32.763Z,400
2018-08-28T04:45:58.899Z,416
2018-08-28T04:46:25.056Z,428
2018-08-28T04:46:51.186Z,436
2018-08-28T04:47:17.326Z,452
2018-08-28T04:47:43.456Z,460
2018-08-28T04:48:09.612Z,472
2018-08-28T04:48:35.842Z,480
2018-08-28T04:49:01.968Z,492
2018-08-28T04:49:28.035Z,496
2018-08-28T04:49:54.174Z,508
2018-08-28T04:50:20.327Z,520
2018-08-28T04:50:46.489Z,532
2018-08-28T04:51:12.621Z,540
2018-08-28T04:51:38.752Z,552
2018-08-28T04:52:04.887Z,564
2018-08-28T04:52:31.018Z,572
2018-08-28T04:52:57.162Z,576
2018-08-28T04:53:23.308Z,584
2018-08-28T04:53:49.478Z,592
2018-08-28T04:54:15.689Z,604
2018-08-28T04:54:41.797Z,612
2018-08-28T04:55:07.954Z,628
2018-08-28T04:55:34.094Z,640
2018-08-28T04:56:00.226Z,652
2018-08-28T04:56:26.353Z,664
2018-08-28T04:56:52.514Z,684
2018-08-28T04:57:18.646Z,696
2018-08-28T04:57:44.828Z,716
2018-08-28T04:58:10.958Z,732
2018-08-28T04:58:37.112Z,752
2018-08-28T04:59:03.245Z,776
2018-08-28T04:59:29.381Z,796
2018-08-28T04:59:55.537Z,816
2018-08-28T05:00:21.669Z,836
2018-08-28T05:00:47.866Z,848
2018-08-28T05:01:13.985Z,864
2018-08-28T05:01:40.118Z,876
2018-08-28T05:02:06.252Z,892
2018-08-28T05:02:32.381Z,904
2018-08-28T05:02:58.517Z,920
2018-08-28T05:03:24.652Z,932
2018-08-28T05:03:50.805Z,948
2018-08-28T05:04:16.941Z,960
2018-08-28T05:04:43.073Z,980
2018-08-28T05:05:09.234Z,996
2018-08-28T05:05:35.369Z,1016
2018-08-28T05:06:01.495Z,1036
2018-08-28T05:06:27.634Z,1056
2018-08-28T05:06:53.783Z,1076
2018-08-28T05:07:19.923Z,1100
2018-08-28T05:07:46.077Z,1124
2018-08-28T05:08:12.210Z,1144
2018-08-28T05:08:38.344Z,1172
2018-08-28T05:09:04.479Z,1196
2018-08-28T05:09:30.634Z,1224
2018-08-28T05:09:56.793Z,1248
2018-08-28T05:10:22.927Z,1268
2018-08-28T05:10:49.064Z,1284
2018-08-28T05:11:15.194Z,1304
2018-08-28T05:11:41.352Z,1320
2018-08-28T05:12:07.479Z,1336
2018-08-28T05:12:33.617Z,1352
2018-08-28T05:12:59.742Z,1368
2018-08-28T05:13:25.898Z,1388
2018-08-28T05:13:52.037Z,1408
2018-08-28T05:14:18.165Z,1424
2018-08-28T05:14:44.304Z,1440
2018-08-28T05:15:10.436Z,1460
2018-08-28T05:15:36.558Z,1472
2018-08-28T05:16:02.783Z,1488
2018-08-28T05:16:28.833Z,1504
2018-08-28T05:16:54.996Z,1524
2018-08-28T05:17:21.130Z,1548
2018-08-28T05:17:47.266Z,1576
2018-08-28T05:18:13.395Z,1592
2018-08-28T05:18:39.548Z,1620
2018-08-28T05:19:05.719Z,1644
2018-08-28T05:19:31.861Z,1664
2018-08-28T05:19:58.001Z,1688
2018-08-28T05:20:24.132Z,1708
2018-08-28T05:20:50.333Z,1732
2018-08-28T05:21:16.469Z,1748
2018-08-28T05:21:42.603Z,1772
2018-08-28T05:22:08.738Z,1792
2018-08-28T05:22:34.899Z,1820
2018-08-28T05:23:01.052Z,1852
2018-08-28T05:23:27.189Z,1888
2018-08-28T05:23:53.318Z,1920
2018-08-28T05:24:19.453Z,1956
2018-08-28T05:24:45.615Z,2000
2018-08-28T05:25:11.750Z,2044
2018-08-28T05:25:37.887Z,2088
2018-08-28T05:26:04.044Z,2136
2018-08-28T05:26:30.176Z,2180
2018-08-28T05:26:56.301Z,2220
2018-08-28T05:27:22.440Z,2256
2018-08-28T05:27:48.571Z,2292
2018-08-28T05:28:14.701Z,2324
2018-08-28T05:28:40.837Z,2360
2018-08-28T05:29:06.999Z,2384
2018-08-28T05:29:33.225Z,2420
2018-08-28T05:29:59.307Z,2456
2018-08-28T05:30:25.511Z,2500
2018-08-28T05:30:51.606Z,2552
2018-08-28T05:31:17.739Z,2596
2018-08-28T05:31:43.914Z,2640
2018-08-28T05:32:10.043Z,2700
2018-08-28T05:32:36.174Z,2756
2018-08-28T05:33:02.328Z,2804
2018-08-28T05:33:28.488Z,2844
2018-08-28T05:33:54.625Z,2872
2018-08-28T05:34:20.778Z,2896
2018-08-28T05:34:46.913Z,2916
2018-08-28T05:35:13.074Z,2936
2018-08-28T05:35:39.227Z,2952
2018-08-28T05:36:05.387Z,2972
2018-08-28T05:36:31.521Z,2984
2018-08-28T05:36:57.653Z,2996
2018-08-28T05:37:23.787Z,3012
2018-08-28T05:37:49.932Z,3032
2018-08-28T05:38:16.082Z,3048
2018-08-28T05:38:42.220Z,3072
2018-08-28T05:39:08.352Z,3088
2018-08-28T05:39:34.483Z,3104
2018-08-28T05:40:00.610Z,3124
2018-08-28T05:40:26.752Z,3140
2018-08-28T05:40:52.881Z,3152
2018-08-28T05:41:19.017Z,3164
2018-08-28T05:41:45.149Z,3184
2018-08-28T05:42:11.287Z,3208
2018-08-28T05:42:37.416Z,3252
2018-08-28T05:43:03.577Z,3292
2018-08-28T05:43:29.710Z,3336
2018-08-28T05:43:55.844Z,3392
2018-08-28T05:44:21.985Z,3452
2018-08-28T05:44:48.143Z,3508
2018-08-28T05:45:14.273Z,3560
2018-08-28T05:45:40.414Z,3604
2018-08-28T05:46:06.557Z,3652
2018-08-28T05:46:32.685Z,3696
2018-08-28T05:46:58.820Z,3740
2018-08-28T05:47:24.952Z,3784
2018-08-28T05:47:51.116Z,3824
2018-08-28T05:48:17.245Z,3872
2018-08-28T05:48:43.372Z,3920
2018-08-28T05:49:09.509Z,3972
2018-08-28T05:49:35.732Z,4028
2018-08-28T05:50:01.796Z,4080
2018-08-28T05:50:27.933Z,4128
2018-08-28T05:50:54.065Z,4160
2018-08-28T05:51:20.201Z,4188
2018-08-28T05:51:46.359Z,4200
2018-08-28T05:52:12.514Z,4204
2018-08-28T05:52:38.649Z,4208
2018-08-28T05:53:04.779Z,4204
2018-08-28T05:53:30.913Z,4204
2018-08-28T05:53:57.050Z,4200
2018-08-28T05:54:23.179Z,4220
2018-08-28T05:54:49.380Z,4232
2018-08-28T05:55:15.485Z,4268
2018-08-28T05:55:41.639Z,4308
2018-08-28T05:56:07.828Z,4368
2018-08-28T05:56:33.905Z,4420
2018-08-28T05:57:00.041Z,4460
2018-08-28T05:57:26.200Z,4484
2018-08-28T05:57:52.331Z,4496
2018-08-28T05:58:18.467Z,4504
2018-08-28T05:58:44.602Z,4524
2018-08-28T05:59:10.737Z,4540
2018-08-28T05:59:36.876Z,4556
2018-08-28T06:00:03.039Z,4576
2018-08-28T06:00:29.173Z,4592
2018-08-28T06:00:55.303Z,4620
2018-08-28T06:01:21.465Z,4656
2018-08-28T06:01:47.601Z,4688
2018-08-28T06:02:13.756Z,4744
2018-08-28T06:02:39.894Z,4808
2018-08-28T06:03:06.088Z,4880
2018-08-28T06:03:32.307Z,4944
2018-08-28T06:03:58.354Z,5000
2018-08-28T06:04:24.479Z,5052
2018-08-28T06:04:50.617Z,5112
2018-08-28T06:05:16.752Z,5168
2018-08-28T06:05:42.885Z,5220
2018-08-28T06:06:09.019Z,5284
2018-08-28T06:06:35.159Z,5344
2018-08-28T06:07:01.293Z,5396
2018-08-28T06:07:27.446Z,5456
2018-08-28T06:07:53.582Z,5508
2018-08-28T06:08:19.750Z,5544
2018-08-28T06:08:45.932Z,5588
2018-08-28T06:09:12.089Z,5648
2018-08-28T06:09:38.256Z,5696
2018-08-28T06:10:04.409Z,5740
2018-08-28T06:10:30.569Z,5764
2018-08-28T06:10:56.722Z,5776
2018-08-28T06:11:22.893Z,5784
2018-08-28T06:11:49.021Z,5780
2018-08-28T06:12:15.253Z,5796
2018-08-28T06:12:41.392Z,5816
2018-08-28T06:13:07.534Z,5848
2018-08-28T06:13:33.664Z,5884
2018-08-28T06:13:59.794Z,5924
2018-08-28T06:14:25.949Z,5960
2018-08-28T06:14:52.273Z,5980
2018-08-28T06:15:18.251Z,5984